Time;durP1;ratioP1;P1;durP2;ratioP2;P2;SDS_P1;SDS_P2;PMS_P1;PMS_P2;Temp;Humidity;BMP_temperature;BMP_pressure;BME280_temperature;BME280_humidity;BME280_pressure;Samples;Min_cycle;Max_cycle;Signal;HPM_P1;HPM_P2
2023/01/31 00:01:56;;;;;;;0.25;0.25;;;1.60;99.90;;;;;;4998732;28;20500;-69
2023/01/31 00:04:26;;;;;;;0.20;0.20;;;1.80;99.90;;;;;;4999828;28;20571;-69
2023/01/31 00:06:53;;;;;;;0.32;0.32;;;1.90;99.90;;;;;;5001880;28;20440;-69
2023/01/31 00:09:23;;;;;;;0.30;0.30;;;2.10;99.90;;;;;;4994447;28;20532;-69
2023/01/31 00:11:55;;;;;;;0.22;0.22;;;2.20;99.90;;;;;;5000176;28;20446;-69
2023/01/31 00:14:23;;;;;;;0.60;0.60;;;2.20;99.90;;;;;;4998803;28;20444;-69
2023/01/31 00:17:14;;;;;;;0.27;0.27;;;2.30;99.90;;;;;;4998639;28;20444;-69
2023/01/31 00:19:46;;;;;;;0.40;0.40;;;2.40;99.90;;;;;;4996199;28;20480;-69
2023/01/31 00:22:15;;;;;;;1.90;0.40;;;2.50;99.90;;;;;;4999572;28;20464;-69
2023/01/31 00:24:47;;;;;;;0.20;0.20;;;2.50;99.90;;;;;;4997571;28;20467;-69
2023/01/31 00:27:14;;;;;;;10.18;0.57;;;2.50;99.90;;;;;;5001613;28;20466;-69
2023/01/31 00:29:40;;;;;;;0.20;0.20;;;2.50;99.90;;;;;;4999934;28;20797;-69
2023/01/31 00:32:31;;;;;;;0.60;0.55;;;2.50;99.90;;;;;;4997987;28;20935;-69
2023/01/31 00:35:03;;;;;;;0.30;0.30;;;2.40;99.90;;;;;;4999202;28;20462;-69
2023/01/31 00:37:36;;;;;;;4.90;0.70;;;2.40;99.90;;;;;;4997430;28;20451;-69
2023/01/31 00:40:04;;;;;;;0.30;0.30;;;2.30;99.90;;;;;;4997664;28;20499;-69
2023/01/31 00:42:55;;;;;;;0.60;0.60;;;2.20;99.90;;;;;;5001972;28;20412;-69
2023/01/31 00:45:26;;;;;;;0.30;0.30;;;2.10;99.90;;;;;;5000515;28;20434;-69
2023/01/31 00:47:57;;;;;;;0.38;0.30;;;2.00;99.90;;;;;;4999847;28;20472;-69
2023/01/31 00:50:27;;;;;;;3.67;0.38;;;2.00;99.90;;;;;;4998468;28;20445;-69
2023/01/31 00:53:01;;;;;;;0.20;0.20;;;1.90;99.90;;;;;;4999765;28;20869;-68
2023/01/31 00:55:28;;;;;;;0.30;0.30;;;1.90;99.90;;;;;;4999584;28;20444;-69
2023/01/31 00:57:54;;;;;;;0.30;0.30;;;1.90;99.90;;;;;;4999823;28;20479;-69
2023/01/31 01:00:21;;;;;;;0.20;0.20;;;1.90;99.90;;;;;;4998949;28;21042;-69
2023/01/31 01:02:48;;;;;;;0.33;0.33;;;1.90;99.90;;;;;;4998325;28;20470;-69
2023/01/31 01:05:16;;;;;;;0.30;0.30;;;1.90;99.90;;;;;;5001222;28;20440;-69
2023/01/31 01:07:44;;;;;;;0.30;0.30;;;1.90;99.90;;;;;;5002216;28;20437;-69
2023/01/31 01:10:11;;;;;;;0.10;0.10;;;1.70;99.90;;;;;;5000090;28;20433;-69
2023/01/31 01:13:06;;;;;;;0.30;0.30;;;1.60;99.90;;;;;;4990281;28;20946;-68
2023/01/31 01:15:37;;;;;;;0.50;0.30;;;1.60;99.90;;;;;;5001285;28;20436;-69
2023/01/31 01:18:04;;;;;;;0.17;0.17;;;1.60;99.90;;;;;;4993110;28;20545;-69
2023/01/31 01:20:33;;;;;;;1.00;0.40;;;1.50;99.90;;;;;;4995978;28;20428;-69
2023/01/31 01:23:02;;;;;;;0.30;0.30;;;1.50;99.90;;;;;;4999183;28;21032;-69
2023/01/31 01:25:29;;;;;;;0.20;0.20;;;1.50;99.90;;;;;;4998802;28;21083;-69
2023/01/31 01:27:56;;;;;;;0.10;0.10;;;1.30;99.90;;;;;;4997233;28;20437;-69
2023/01/31 01:30:23;;;;;;;0.40;0.30;;;1.20;99.90;;;;;;4998573;28;20426;-69
2023/01/31 01:32:49;;;;;;;2.80;0.30;;;1.10;99.90;;;;;;4996694;28;20440;-69
2023/01/31 01:35:16;;;;;;;0.55;0.55;;;1.00;99.90;;;;;;4997424;28;22608;-69
2023/01/31 01:37:43;;;;;;;0.50;0.30;;;1.00;99.90;;;;;;4999915;28;20433;-69
2023/01/31 01:40:11;;;;;;;0.30;0.30;;;0.80;99.90;;;;;;5001786;28;20434;-69
2023/01/31 01:42:37;;;;;;;0.30;0.30;;;0.80;1.00;;;;;;4997495;28;20947;-68
2023/01/31 01:45:14;;;;;;;3.40;0.40;;;0.70;1.00;;;;;;4998941;28;20503;-69
2023/01/31 01:47:56;;;;;;;0.30;0.30;;;0.70;1.00;;;;;;4999431;28;20473;-68
2023/01/31 01:50:29;;;;;;;0.30;0.30;;;0.80;74.70;;;;;;4997571;28;20430;-69
2023/01/31 01:53:12;;;;;;;2.50;0.80;;;0.90;99.90;;;;;;4993598;28;20440;-69
2023/01/31 01:55:46;;;;;;;0.30;0.30;;;1.00;99.90;;;;;;4994880;28;20464;-68
2023/01/31 01:58:22;;;;;;;0.40;0.40;;;1.10;84.10;;;;;;4995139;28;20435;-69
2023/01/31 02:00:50;;;;;;;0.25;0.25;;;1.10;62.90;;;;;;4995006;28;20433;-69
2023/01/31 02:03:17;;;;;;;0.60;0.50;;;1.20;34.30;;;;;;4994947;28;20436;-69
2023/01/31 02:05:57;;;;;;;0.60;0.50;;;1.20;18.90;;;;;;4996194;28;20434;-69
2023/01/31 02:08:27;;;;;;;0.30;0.30;;;1.30;1.00;;;;;;4998247;28;20487;-69
2023/01/31 02:11:03;;;;;;;1.30;0.70;;;1.30;1.00;;;;;;4992500;28;20511;-69
2023/01/31 02:13:30;;;;;;;0.52;0.52;;;1.30;1.00;;;;;;4996752;28;20447;-69
2023/01/31 02:15:57;;;;;;;0.10;0.10;;;1.40;1.00;;;;;;4996521;28;20470;-69
2023/01/31 02:18:25;;;;;;;0.40;0.40;;;1.50;1.00;;;;;;4996929;28;20432;-69
2023/01/31 02:21:11;;;;;;;0.20;0.20;;;1.50;1.00;;;;;;4995463;28;20440;-69
2023/01/31 02:23:56;;;;;;;0.20;0.20;;;1.50;1.00;;;;;;4999671;28;21147;-69
2023/01/31 02:26:41;;;;;;;3.70;0.45;;;1.50;1.00;;;;;;4995188;28;20446;-69
2023/01/31 02:29:43;;;;;;;0.20;0.20;;;1.50;1.00;;;;;;4994655;28;20438;-69
2023/01/31 02:32:45;;;;;;;4.20;0.50;;;1.50;1.00;;;;;;4997798;28;20511;-69
2023/01/31 02:35:27;;;;;;;0.20;0.20;;;1.50;99.90;;;;;;4987721;28;20525;-69
2023/01/31 02:37:56;;;;;;;0.10;0.10;;;1.50;99.90;;;;;;4997059;28;20514;-69
2023/01/31 02:40:50;;;;;;;1.65;0.80;;;1.50;99.90;;;;;;4997614;28;20514;-69
2023/01/31 02:46:52;;;;;;;0.20;0.20;;;1.40;99.90;;;;;;4997687;28;20432;-69
2023/01/31 02:49:36;;;;;;;1.50;0.40;;;1.30;99.90;;;;;;4993161;28;20434;-69
2023/01/31 02:52:35;;;;;;;0.20;0.20;;;1.10;99.90;;;;;;4993691;28;20433;-69
2023/01/31 02:57:54;;;;;;;0.32;0.32;;;0.80;99.90;;;;;;4994885;28;20522;-68
2023/01/31 03:00:23;;;;;;;0.60;0.60;;;0.70;99.90;;;;;;4995895;28;20447;-69
2023/01/31 03:02:49;;;;;;;0.43;0.43;;;0.60;1.00;;;;;;4996023;28;20428;-69
2023/01/31 03:05:18;;;;;;;2.50;0.90;;;0.40;1.00;;;;;;4994407;28;20791;-69
2023/01/31 03:07:55;;;;;;;0.20;0.20;;;0.30;1.00;;;;;;4996087;28;20451;-69
2023/01/31 03:10:33;;;;;;;0.50;0.50;;;0.20;1.00;;;;;;4992541;28;20435;-69
2023/01/31 03:13:09;;;;;;;2.10;0.40;;;0.20;1.00;;;;;;5000214;28;20525;-68
2023/01/31 03:18:38;;;;;;;0.20;0.20;;;0.10;99.90;;;;;;5001231;28;20526;-69
2023/01/31 03:21:11;;;;;;;0.57;0.30;;;0.10;99.90;;;;;;4997761;28;21438;-68
2023/01/31 03:23:44;;;;;;;0.10;0.10;;;0.10;99.90;;;;;;5010499;28;20454;-68
2023/01/31 03:26:11;;;;;;;0.30;0.30;;;-0.10;99.90;;;;;;4999291;28;20428;-69
2023/01/31 03:28:41;;;;;;;0.60;0.30;;;-0.10;99.90;;;;;;4997562;28;20535;-68
2023/01/31 03:31:25;;;;;;;0.50;0.50;;;-0.10;1.00;;;;;;5001283;28;20437;-67
2023/01/31 03:33:58;;;;;;;0.20;0.20;;;-0.20;1.00;;;;;;4997753;28;20499;-68
2023/01/31 03:36:27;;;;;;;1.80;0.20;;;-0.30;1.00;;;;;;4999937;28;20438;-68
2023/01/31 03:39:03;;;;;;;0.40;0.40;;;-0.40;1.00;;;;;;4997860;28;20811;-68
2023/01/31 03:41:42;;;;;;;0.43;0.32;;;-0.40;1.00;;;;;;5007696;28;20438;-68
2023/01/31 03:44:19;;;;;;;0.10;0.10;;;-0.30;99.90;;;;;;4996608;28;20433;-68
2023/01/31 03:46:51;;;;;;;0.10;0.10;;;0.00;99.90;;;;;;4993968;28;21051;-68
2023/01/31 03:49:21;;;;;;;0.30;0.30;;;0.10;99.90;;;;;;4993032;28;21287;-68
2023/01/31 03:51:55;;;;;;;0.20;0.20;;;0.10;59.80;;;;;;4997585;28;20449;-68
2023/01/31 03:54:28;;;;;;;2.70;0.40;;;0.20;8.60;;;;;;5000181;28;20525;-68
2023/01/31 03:57:03;;;;;;;3.30;0.20;;;0.30;13.90;;;;;;4994267;28;20534;-68
2023/01/31 03:59:36;;;;;;;0.20;0.20;;;0.40;1.00;;;;;;5001187;28;21127;-68
2023/01/31 04:02:06;;;;;;;0.40;0.40;;;0.50;99.90;;;;;;4996836;28;21030;-68
2023/01/31 04:04:36;;;;;;;0.20;0.20;;;0.60;99.90;;;;;;4991081;28;20527;-68
2023/01/31 04:07:04;;;;;;;3.05;0.45;;;0.60;1.00;;;;;;4999504;28;20545;-68
2023/01/31 04:09:32;;;;;;;0.30;0.30;;;0.50;1.00;;;;;;4995773;28;20535;-68
2023/01/31 04:12:01;;;;;;;1.15;0.65;;;0.40;99.90;;;;;;4997929;28;20439;-70
2023/01/31 04:14:28;;;;;;;0.20;0.20;;;0.40;99.90;;;;;;4999265;28;20805;-70
2023/01/31 04:16:54;;;;;;;1.50;0.30;;;0.40;1.00;;;;;;4997017;28;20451;-70
2023/01/31 04:19:21;;;;;;;0.37;0.37;;;0.40;1.00;;;;;;4990117;28;20506;-70
2023/01/31 04:21:48;;;;;;;0.30;0.30;;;0.50;1.00;;;;;;4991180;28;20441;-68
2023/01/31 04:24:15;;;;;;;0.90;0.45;;;0.60;1.00;;;;;;4996560;28;20438;-68
2023/01/31 04:26:42;;;;;;;0.20;0.20;;;0.70;99.90;;;;;;4999229;28;20528;-68
2023/01/31 04:29:09;;;;;;;0.40;0.20;;;0.80;99.90;;;;;;4993633;28;20442;-68
2023/01/31 04:31:36;;;;;;;0.20;0.20;;;0.80;99.90;;;;;;4999380;28;20441;-68
2023/01/31 04:34:07;;;;;;;0.30;0.30;;;0.80;99.90;;;;;;4996426;28;20981;-68
2023/01/31 04:36:34;;;;;;;0.22;0.22;;;0.80;25.80;;;;;;5000995;28;20461;-68
2023/01/31 04:39:05;;;;;;;0.80;0.55;;;0.70;1.00;;;;;;4999123;28;20787;-69
2023/01/31 04:41:32;;;;;;;1.30;0.82;;;0.70;1.00;;;;;;4998229;28;20438;-69
2023/01/31 04:43:59;;;;;;;0.30;0.30;;;0.60;1.00;;;;;;4998792;28;20466;-69
2023/01/31 04:46:26;;;;;;;0.40;0.40;;;0.60;1.00;;;;;;4997163;28;21015;-69
2023/01/31 04:48:53;;;;;;;0.20;0.20;;;0.50;1.00;;;;;;4998287;28;22912;-69
2023/01/31 04:51:20;;;;;;;1.30;1.20;;;0.50;1.00;;;;;;4997241;28;20432;-68
2023/01/31 04:53:47;;;;;;;0.20;0.20;;;0.40;1.00;;;;;;5000007;28;21045;-68
2023/01/31 04:56:13;;;;;;;0.50;0.50;;;0.30;45.90;;;;;;4998669;28;20467;-69
2023/01/31 04:58:40;;;;;;;0.52;0.32;;;0.30;62.30;;;;;;4995396;28;20499;-69
2023/01/31 05:01:07;;;;;;;6.50;0.80;;;0.20;99.90;;;;;;4998926;28;21024;-68
2023/01/31 05:03:34;;;;;;;6.30;0.30;;;0.10;99.90;;;;;;4995809;28;20440;-68
2023/01/31 05:06:02;;;;;;;0.20;0.20;;;0.10;99.90;;;;;;4997774;28;20758;-69
2023/01/31 05:08:28;;;;;;;0.47;0.47;;;0.00;99.90;;;;;;4997635;28;20538;-68
2023/01/31 05:11:00;;;;;;;0.20;0.20;;;0.00;1.00;;;;;;4998997;28;20434;-69
2023/01/31 05:13:31;;;;;;;0.20;0.20;;;-0.10;1.00;;;;;;4999216;28;20440;-69
2023/01/31 05:16:01;;;;;;;2.10;0.50;;;-0.20;1.00;;;;;;4998177;28;20468;-69
2023/01/31 05:18:28;;;;;;;0.30;0.30;;;-0.30;1.00;;;;;;4996568;28;20435;-68
2023/01/31 05:20:55;;;;;;;0.70;0.40;;;-0.40;1.00;;;;;;4997962;28;20516;-69
2023/01/31 05:23:24;;;;;;;0.40;0.35;;;-0.50;1.00;;;;;;4997639;28;22378;-69
2023/01/31 05:25:51;;;;;;;0.43;0.43;;;-0.60;1.00;;;;;;5009149;28;20435;-69
2023/01/31 05:28:18;;;;;;;0.40;0.40;;;-0.70;1.00;;;;;;4997159;28;20922;-69
2023/01/31 05:30:45;;;;;;;0.30;0.30;;;-0.80;40.10;;;;;;4998926;28;20529;-69
2023/01/31 05:33:13;;;;;;;0.30;0.30;;;-0.80;99.90;;;;;;4996064;28;20449;-69
2023/01/31 05:35:41;;;;;;;0.20;0.20;;;-0.80;1.00;;;;;;4998476;28;20453;-69
2023/01/31 05:38:08;;;;;;;0.13;0.13;;;-0.90;1.00;;;;;;5007770;28;20436;-69
2023/01/31 05:40:35;;;;;;;1.00;0.20;;;-1.00;1.00;;;;;;4992646;28;20763;-69
2023/01/31 05:43:04;;;;;;;1.20;0.40;;;-1.00;1.00;;;;;;4994905;28;20442;-69
2023/01/31 05:45:31;;;;;;;0.10;0.10;;;-1.10;1.00;;;;;;4994639;28;20468;-69
2023/01/31 05:47:58;;;;;;;0.10;0.10;;;-1.20;99.90;;;;;;4998045;28;20436;-69
2023/01/31 05:50:25;;;;;;;2.28;0.57;;;-1.20;99.90;;;;;;5002495;28;20470;-69
2023/01/31 05:52:56;;;;;;;0.50;0.50;;;-1.20;1.00;;;;;;4997628;28;20447;-69
2023/01/31 05:55:27;;;;;;;0.30;0.30;;;-1.30;1.00;;;;;;4997200;28;20892;-70
2023/01/31 05:57:53;;;;;;;0.70;0.70;;;-1.40;1.00;;;;;;4996401;28;20533;-69
2023/01/31 06:00:22;;;;;;;0.20;0.20;;;-1.50;1.00;;;;;;4992722;28;20541;-69
2023/01/31 06:02:49;;;;;;;0.22;0.22;;;-1.50;1.00;;;;;;5012169;28;20444;-69
2023/01/31 06:05:16;;;;;;;4.00;0.40;;;-1.60;1.00;;;;;;4997559;28;20436;-69
2023/01/31 06:07:43;;;;;;;0.30;0.30;;;-1.70;1.00;;;;;;4996201;28;20437;-69
2023/01/31 06:10:12;;;;;;;0.60;0.60;;;-1.80;99.90;;;;;;4996623;28;20432;-71
2023/01/31 06:12:40;;;;;;;0.70;0.30;;;-1.80;1.00;;;;;;4996931;28;20841;-70
2023/01/31 06:15:07;;;;;;;0.30;0.30;;;-1.70;99.90;;;;;;4996316;28;20611;-69
2023/01/31 06:17:34;;;;;;;0.50;0.30;;;-1.60;1.00;;;;;;5000245;28;20898;-69
2023/01/31 06:20:03;;;;;;;0.40;0.40;;;-1.60;1.00;;;;;;4996935;28;20921;-69
2023/01/31 06:22:32;;;;;;;0.30;0.20;;;-1.50;1.00;;;;;;5007188;28;20474;-69
2023/01/31 06:24:59;;;;;;;0.23;0.23;;;-1.40;99.90;;;;;;5006489;28;20431;-69
2023/01/31 06:27:26;;;;;;;0.20;0.20;;;-1.30;78.60;;;;;;5007826;28;20523;-69
2023/01/31 06:29:54;;;;;;;2.25;0.45;;;-1.00;99.90;;;;;;5001057;28;20428;-69
2023/01/31 06:32:21;;;;;;;0.10;0.10;;;-0.80;1.00;;;;;;4995787;28;20872;-69
2023/01/31 06:34:48;;;;;;;0.25;0.25;;;-0.60;1.00;;;;;;4997804;28;20442;-69
2023/01/31 06:37:15;;;;;;;0.32;0.32;;;-0.40;14.70;;;;;;4997107;28;20933;-69
2023/01/31 06:39:41;;;;;;;0.25;0.25;;;-0.30;37.20;;;;;;4997641;28;21010;-69
2023/01/31 06:42:08;;;;;;;0.40;0.40;;;-0.10;13.50;;;;;;4995803;28;20519;-69
2023/01/31 06:44:36;;;;;;;0.50;0.40;;;0.00;1.00;;;;;;4995061;28;20507;-69
2023/01/31 06:47:03;;;;;;;0.50;0.50;;;0.00;1.00;;;;;;4994673;28;20475;-69
2023/01/31 06:49:32;;;;;;;0.52;0.52;;;-0.10;1.00;;;;;;4995403;28;20442;-69
2023/01/31 06:51:59;;;;;;;2.80;0.30;;;-0.10;99.90;;;;;;4987529;28;20531;-69
2023/01/31 06:54:27;;;;;;;0.50;0.50;;;-0.20;99.90;;;;;;4990616;28;20448;-69
2023/01/31 06:56:54;;;;;;;0.68;0.68;;;-0.20;99.90;;;;;;4988296;28;20446;-69
2023/01/31 06:59:21;;;;;;;0.47;0.47;;;-0.30;99.90;;;;;;4990666;28;20442;-69
2023/01/31 07:01:47;;;;;;;4.70;0.68;;;-0.30;99.90;;;;;;4981925;28;20447;-69
2023/01/31 07:04:14;;;;;;;0.90;0.28;;;-0.30;99.90;;;;;;4995901;28;20446;-69
2023/01/31 07:06:41;;;;;;;0.90;0.28;;;-0.30;88.00;;;;;;4998129;28;20542;-69
2023/01/31 07:09:14;;;;;;;0.20;0.20;;;-0.30;9.20;;;;;;4996585;28;20431;-69
2023/01/31 07:11:41;;;;;;;0.20;0.20;;;-0.40;1.00;;;;;;4995457;28;20434;-69
2023/01/31 07:14:07;;;;;;;0.43;0.43;;;-0.50;1.00;;;;;;4987896;28;20447;-69
2023/01/31 07:16:36;;;;;;;0.38;0.38;;;-0.60;99.90;;;;;;4990450;28;20501;-69
2023/01/31 07:19:03;;;;;;;0.40;0.40;;;-0.70;99.90;;;;;;4996618;28;20434;-69
2023/01/31 07:21:32;;;;;;;1.50;0.30;;;-0.70;99.90;;;;;;4996993;28;20432;-69
2023/01/31 07:23:59;;;;;;;0.20;0.20;;;-0.70;99.90;;;;;;4992079;28;21110;-69
2023/01/31 07:26:26;;;;;;;5.80;0.70;;;-0.70;1.00;;;;;;4998681;28;20959;-70
2023/01/31 07:28:53;;;;;;;0.40;0.40;;;-0.60;1.00;;;;;;4992576;28;20440;-69
2023/01/31 07:31:20;;;;;;;3.75;0.57;;;-0.50;1.00;;;;;;4991250;28;20436;-69
2023/01/31 07:33:48;;;;;;;0.20;0.20;;;-0.40;1.00;;;;;;4990866;28;21202;-69
2023/01/31 07:36:18;;;;;;;0.55;0.55;;;-0.30;99.90;;;;;;4991776;28;20925;-69
2023/01/31 07:38:45;;;;;;;0.30;0.30;;;-0.30;99.90;;;;;;4997842;28;20432;-69
2023/01/31 07:41:12;;;;;;;0.50;0.50;;;-0.20;99.90;;;;;;4996548;28;20442;-69
2023/01/31 07:43:39;;;;;;;0.70;0.70;;;-0.10;99.90;;;;;;4989558;28;20447;-69
2023/01/31 07:46:10;;;;;;;0.20;0.20;;;0.00;99.90;;;;;;4997453;28;20440;-69
2023/01/31 07:48:38;;;;;;;0.40;0.30;;;0.20;30.90;;;;;;4998012;28;20564;-69
2023/01/31 07:51:05;;;;;;;0.50;0.50;;;0.40;1.00;;;;;;5001183;28;20543;-76
2023/01/31 07:53:40;;;;;;;0.60;0.50;;;0.50;99.90;;;;;;4997163;28;20510;-82
2023/01/31 07:56:13;;;;;;;1.17;0.57;;;0.70;99.90;;;;;;4998838;28;20438;-76
2023/01/31 07:58:41;;;;;;;0.50;0.50;;;1.00;99.90;;;;;;5001588;28;20520;-76
2023/01/31 08:04:17;;;;;;;0.75;0.75;;;1.30;99.90;;;;;;5000808;28;22667;-76
2023/01/31 08:06:49;;;;;;;4.65;1.17;;;1.50;99.90;;;;;;4999968;28;20437;-76
2023/01/31 08:09:16;;;;;;;1.42;1.00;;;1.60;99.90;;;;;;5004137;28;20440;-76
2023/01/31 08:11:43;;;;;;;0.90;0.90;;;1.50;99.90;;;;;;5001957;28;20440;-76
2023/01/31 08:14:10;;;;;;;1.30;0.68;;;1.40;99.90;;;;;;4992842;28;20445;-76
2023/01/31 08:16:37;;;;;;;1.90;0.52;;;1.30;99.90;;;;;;4997711;28;20535;-76
2023/01/31 08:19:04;;;;;;;1.38;1.05;;;1.30;99.90;;;;;;4999746;28;20943;-76
2023/01/31 08:21:31;;;;;;;1.57;1.07;;;1.30;99.90;;;;;;5004964;28;20437;-76
2023/01/31 08:23:58;;;;;;;0.95;0.90;;;1.30;99.90;;;;;;5002504;28;20436;-75
2023/01/31 08:26:25;;;;;;;0.40;0.40;;;1.30;99.90;;;;;;4998383;28;20506;-75
2023/01/31 08:28:52;;;;;;;0.77;0.77;;;1.40;99.90;;;;;;5002671;28;21170;-75
2023/01/31 08:31:24;;;;;;;0.90;0.60;;;1.30;99.90;;;;;;5003851;28;20433;-75
2023/01/31 08:33:52;;;;;;;3.47;1.30;;;1.40;99.90;;;;;;5001121;28;20562;-75
2023/01/31 08:36:25;;;;;;;0.88;0.88;;;1.40;99.90;;;;;;5003309;28;20452;-75
2023/01/31 08:38:52;;;;;;;1.27;1.23;;;1.50;99.90;;;;;;5004413;28;20987;-75
2023/01/31 08:41:21;;;;;;;1.73;1.17;;;1.60;99.90;;;;;;5000714;28;20430;-75
2023/01/31 08:43:48;;;;;;;0.85;0.85;;;1.70;99.90;;;;;;5001405;28;20436;-75
2023/01/31 08:46:28;;;;;;;2.10;1.35;;;1.80;99.90;;;;;;4998688;28;20447;-79
2023/01/31 08:48:55;;;;;;;1.35;1.02;;;1.80;99.90;;;;;;4998823;28;20438;-76
2023/01/31 08:51:22;;;;;;;3.10;0.80;;;2.00;99.90;;;;;;4997990;28;20433;-76
2023/01/31 08:53:52;;;;;;;1.83;1.42;;;2.20;99.90;;;;;;4998501;28;20444;-76
2023/01/31 08:56:24;;;;;;;5.15;2.08;;;2.30;99.90;;;;;;4998652;28;20947;-76
2023/01/31 08:58:53;;;;;;;1.48;1.27;;;2.40;99.90;;;;;;5001674;28;20463;-75
2023/01/31 09:01:20;;;;;;;1.38;1.05;;;2.60;99.90;;;;;;4995751;28;20916;-74
2023/01/31 09:03:49;;;;;;;4.35;1.38;;;2.70;99.90;;;;;;5002323;28;20444;-75
2023/01/31 09:06:19;;;;;;;3.13;1.40;;;2.80;99.90;;;;;;4997596;28;20520;-75
2023/01/31 09:08:57;;;;;;;2.00;1.80;;;3.10;99.90;;;;;;4994990;28;21009;-75
2023/01/31 09:11:27;;;;;;;0.88;0.88;;;3.30;99.90;;;;;;4997007;28;21130;-75
2023/01/31 09:13:56;;;;;;;1.57;1.17;;;3.60;99.90;;;;;;5000427;28;20510;-75
2023/01/31 09:16:23;;;;;;;1.37;0.70;;;3.90;99.90;;;;;;5002852;28;20475;-75
2023/01/31 09:18:50;;;;;;;1.20;1.20;;;3.90;99.90;;;;;;5000859;28;20437;-75
2023/01/31 09:21:19;;;;;;;1.60;1.50;;;4.00;99.90;;;;;;4999852;28;20503;-74
2023/01/31 09:23:47;;;;;;;1.50;1.30;;;3.90;99.90;;;;;;4999206;28;20436;-74
2023/01/31 09:26:15;;;;;;;1.48;1.38;;;4.00;99.90;;;;;;4997030;28;20431;-74
2023/01/31 09:28:44;;;;;;;0.63;0.63;;;4.10;99.90;;;;;;4996906;28;20606;-75
2023/01/31 09:31:13;;;;;;;0.95;0.95;;;4.20;99.90;;;;;;4997257;28;20462;-75
2023/01/31 09:33:41;;;;;;;1.30;0.93;;;4.20;99.90;;;;;;5001624;28;20499;-75
2023/01/31 09:36:11;;;;;;;1.38;1.38;;;4.40;99.90;;;;;;5001160;28;20531;-74
2023/01/31 09:38:39;;;;;;;0.95;0.95;;;4.50;99.90;;;;;;5000464;28;20932;-74
2023/01/31 09:41:34;;;;;;;0.88;0.68;;;4.60;99.90;;;;;;4999292;28;20527;-74
2023/01/31 09:44:03;;;;;;;1.00;0.98;;;4.70;99.90;;;;;;5000552;28;20427;-74
2023/01/31 09:46:35;;;;;;;1.77;1.10;;;4.90;99.90;;;;;;5001209;28;20446;-74
2023/01/31 09:49:07;;;;;;;1.00;0.73;;;5.00;99.90;;;;;;4991851;28;21242;-75
2023/01/31 09:51:34;;;;;;;0.80;0.68;;;5.20;99.90;;;;;;4999018;28;20463;-74
2023/01/31 09:54:06;;;;;;;1.37;1.03;;;5.10;99.90;;;;;;4995542;28;20445;-74
2023/01/31 09:56:45;;;;;;;1.40;0.90;;;5.00;99.90;;;;;;5008198;28;20433;-75
2023/01/31 09:59:38;;;;;;;3.63;1.13;;;4.80;99.90;;;;;;5000964;28;20812;-74
2023/01/31 10:02:36;;;;;;;1.30;1.20;;;4.40;99.90;;;;;;4994057;28;20430;-74
2023/01/31 10:05:29;;;;;;;1.70;0.93;;;4.30;99.90;;;;;;4995647;28;20459;-74
2023/01/31 10:08:25;;;;;;;1.92;1.10;;;4.10;99.90;;;;;;5000286;28;20441;-74
2023/01/31 10:11:02;;;;;;;5.50;0.80;;;3.80;99.90;;;;;;4997295;28;20520;-74
2023/01/31 10:13:36;;;;;;;1.73;0.98;;;3.60;99.90;;;;;;4996194;28;20856;-74
2023/01/31 10:16:28;;;;;;;4.10;1.20;;;3.60;99.90;;;;;;4992942;28;20437;-74
2023/01/31 10:19:18;;;;;;;1.33;1.08;;;3.70;99.90;;;;;;4998270;28;20446;-74
2023/01/31 10:21:48;;;;;;;0.40;0.40;;;3.80;99.90;;;;;;4999882;28;20436;-74
2023/01/31 10:24:30;;;;;;;0.90;0.90;;;3.90;99.90;;;;;;4993020;28;20433;-73
2023/01/31 10:27:22;;;;;;;5.50;1.55;;;3.80;99.90;;;;;;5001081;28;20499;-73
2023/01/31 10:29:54;;;;;;;1.67;1.00;;;3.90;99.90;;;;;;4997346;28;21176;-73
2023/01/31 10:32:34;;;;;;;1.20;1.03;;;4.00;99.90;;;;;;4994765;28;20663;-73
2023/01/31 10:35:31;;;;;;;5.70;1.00;;;4.00;99.90;;;;;;4994008;28;20886;-72
2023/01/31 10:38:18;;;;;;;4.05;1.30;;;4.20;99.90;;;;;;4993270;28;20439;-73
2023/01/31 10:40:51;;;;;;;1.70;0.75;;;4.30;99.90;;;;;;4999724;28;20477;-73
2023/01/31 10:43:28;;;;;;;2.08;1.20;;;4.30;99.90;;;;;;4999827;28;20462;-73
2023/01/31 10:45:59;;;;;;;0.95;0.90;;;4.30;99.90;;;;;;4982193;28;20440;-73
2023/01/31 10:48:28;;;;;;;3.05;1.15;;;4.20;99.90;;;;;;4993325;28;20446;-69
2023/01/31 10:51:12;;;;;;;0.68;0.68;;;4.20;99.90;;;;;;4998193;28;20534;-73
2023/01/31 10:54:00;;;;;;;1.20;0.57;;;4.10;99.90;;;;;;4999106;28;20757;-72
2023/01/31 10:56:34;;;;;;;3.95;1.38;;;4.10;99.90;;;;;;4998995;28;20440;-73
2023/01/31 10:59:11;;;;;;;1.88;0.50;;;4.40;99.90;;;;;;4995731;28;20472;-73
2023/01/31 11:01:38;;;;;;;1.00;0.77;;;4.70;99.90;;;;;;4998551;28;20472;-73
2023/01/31 11:04:29;;;;;;;0.80;0.70;;;5.00;99.90;;;;;;4999302;28;20428;-74
2023/01/31 11:06:59;;;;;;;0.85;0.85;;;5.10;99.90;;;;;;4999933;28;20443;-74
2023/01/31 11:09:33;;;;;;;1.33;0.70;;;5.20;99.90;;;;;;4999136;28;21534;-74
2023/01/31 11:12:06;;;;;;;0.75;0.60;;;5.10;99.90;;;;;;4993912;28;20495;-74
2023/01/31 11:14:35;;;;;;;0.75;0.75;;;4.90;99.90;;;;;;5000349;28;20443;-75
2023/01/31 11:17:19;;;;;;;0.70;0.70;;;4.90;99.90;;;;;;4995146;28;20531;-75
2023/01/31 11:19:52;;;;;;;0.70;0.70;;;4.80;99.90;;;;;;4999503;28;20441;-75
2023/01/31 11:22:36;;;;;;;0.68;0.68;;;4.80;99.90;;;;;;4997040;28;20527;-76
2023/01/31 11:25:05;;;;;;;1.05;0.88;;;4.60;99.90;;;;;;4990443;28;20441;-76
2023/01/31 11:27:40;;;;;;;0.80;0.80;;;4.60;99.90;;;;;;4997439;28;21014;-76
2023/01/31 11:30:39;;;;;;;6.10;1.10;;;4.50;99.90;;;;;;5002417;28;20781;-76
2023/01/31 11:33:26;;;;;;;4.30;0.85;;;4.60;99.90;;;;;;5024166;28;20908;-76
2023/01/31 11:35:54;;;;;;;0.67;0.63;;;4.70;99.90;;;;;;5021633;28;20437;-76
2023/01/31 11:38:22;;;;;;;1.17;1.00;;;4.70;99.90;;;;;;5021884;28;20429;-76
2023/01/31 11:40:49;;;;;;;5.38;0.77;;;4.70;99.90;;;;;;5017835;28;20481;-72
2023/01/31 11:43:16;;;;;;;1.17;1.08;;;4.80;99.90;;;;;;5019117;28;20806;-75
2023/01/31 11:45:45;;;;;;;0.93;0.93;;;4.80;99.90;;;;;;5004987;28;20437;-77
2023/01/31 11:48:12;;;;;;;3.10;1.48;;;4.90;99.90;;;;;;5016990;28;20442;-77
2023/01/31 11:50:44;;;;;;;1.10;1.10;;;4.80;99.90;;;;;;5023781;28;21135;-77
2023/01/31 11:53:21;;;;;;;0.60;0.60;;;4.60;99.90;;;;;;5021355;28;20446;-77
2023/01/31 11:55:50;;;;;;;3.10;1.20;;;4.50;99.90;;;;;;5020246;28;20436;-77
2023/01/31 11:58:24;;;;;;;0.95;0.75;;;4.60;99.90;;;;;;5022003;28;20434;-77
2023/01/31 12:01:17;;;;;;;2.17;0.98;;;4.70;99.90;;;;;;5019956;28;20431;-77
2023/01/31 12:03:55;;;;;;;0.80;0.80;;;4.90;99.90;;;;;;5012245;28;20518;-77
2023/01/31 12:06:36;;;;;;;1.20;0.90;;;4.90;99.90;;;;;;5018528;28;20454;-76
2023/01/31 12:09:18;;;;;;;4.60;1.38;;;4.80;99.90;;;;;;5016308;28;20434;-76
2023/01/31 12:12:02;;;;;;;0.90;0.90;;;4.70;99.90;;;;;;5003548;28;20440;-76
2023/01/31 12:14:41;;;;;;;1.60;1.25;;;4.60;99.90;;;;;;5000538;28;20436;-77
2023/01/31 12:17:13;;;;;;;4.70;1.50;;;4.70;99.90;;;;;;5002487;28;20444;-77
2023/01/31 12:19:57;;;;;;;1.20;0.80;;;4.70;99.90;;;;;;5001039;28;20447;-77
2023/01/31 12:22:34;;;;;;;2.10;0.77;;;4.70;99.90;;;;;;5002848;28;20436;-77
2023/01/31 12:25:31;;;;;;;0.85;0.85;;;4.70;99.90;;;;;;5002142;28;20528;-77
2023/01/31 12:28:24;;;;;;;14.10;0.80;;;4.60;99.90;;;;;;4998455;28;20443;-76
2023/01/31 12:31:20;;;;;;;2.05;1.23;;;4.60;99.90;;;;;;5003016;28;20425;-77
2023/01/31 12:34:01;;;;;;;1.67;1.48;;;4.50;99.90;;;;;;5001185;28;20432;-76
2023/01/31 12:36:51;;;;;;;3.95;1.40;;;4.50;99.90;;;;;;5001367;28;20468;-76
2023/01/31 12:39:47;;;;;;;1.42;1.20;;;4.50;99.90;;;;;;4998377;28;20802;-76
2023/01/31 12:42:24;;;;;;;2.17;1.33;;;4.60;99.90;;;;;;4996938;28;20433;-76
2023/01/31 12:45:20;;;;;;;1.23;1.00;;;4.60;99.90;;;;;;5001776;28;20927;-76
2023/01/31 12:48:12;;;;;;;1.10;1.00;;;4.60;99.90;;;;;;5000156;28;20429;-76
2023/01/31 12:50:51;;;;;;;0.40;0.40;;;4.60;99.90;;;;;;5001860;28;20465;-76
2023/01/31 12:53:43;;;;;;;1.10;1.10;;;4.70;99.90;;;;;;5001137;28;20984;-77
2023/01/31 12:56:18;;;;;;;0.75;0.75;;;4.70;99.90;;;;;;5006229;28;20755;-77
2023/01/31 12:59:04;;;;;;;1.33;1.23;;;4.80;99.90;;;;;;4992240;28;20543;-77
2023/01/31 13:01:55;;;;;;;2.15;1.25;;;4.90;99.90;;;;;;4998819;28;20444;-76
2023/01/31 13:04:38;;;;;;;1.73;1.45;;;4.90;99.90;;;;;;5015502;28;20437;-77
2023/01/31 13:07:19;;;;;;;1.75;1.13;;;4.90;99.90;;;;;;5000375;28;20436;-77
2023/01/31 13:09:51;;;;;;;2.80;1.00;;;5.00;99.90;;;;;;5001510;28;20528;-77
2023/01/31 13:12:27;;;;;;;1.80;1.60;;;5.20;99.90;;;;;;5004384;28;20436;-77
2023/01/31 13:15:36;;;;;;;1.27;1.02;;;5.30;99.90;;;;;;4998967;28;20432;-77
2023/01/31 13:18:05;;;;;;;2.10;1.25;;;5.40;99.90;;;;;;5001353;28;20438;-77
2023/01/31 13:20:45;;;;;;;1.20;0.85;;;5.50;99.90;;;;;;4996371;28;20441;-77
2023/01/31 13:23:32;;;;;;;2.40;1.17;;;5.50;99.90;;;;;;4993667;28;20440;-77
2023/01/31 13:26:26;;;;;;;1.52;1.38;;;5.50;99.90;;;;;;4996773;28;20942;-76
2023/01/31 13:29:03;;;;;;;0.70;0.70;;;5.50;99.90;;;;;;4997840;28;20472;-77
2023/01/31 13:31:39;;;;;;;0.88;0.88;;;5.40;99.90;;;;;;5000965;28;20636;-77
2023/01/31 13:34:30;;;;;;;1.20;0.82;;;5.50;99.90;;;;;;5001091;28;20464;-77
2023/01/31 13:37:05;;;;;;;0.45;0.45;;;5.30;99.90;;;;;;4998215;28;20436;-77
2023/01/31 13:39:39;;;;;;;1.60;0.80;;;5.30;99.90;;;;;;5002240;28;20544;-76
2023/01/31 13:42:06;;;;;;;1.15;1.02;;;5.40;99.90;;;;;;4994163;28;20559;-76